Time;durP1;ratioP1;P1;durP2;ratioP2;P2;SDS_P1;SDS_P2;PMS_P1;PMS_P2;Temp;Humidity;BMP_temperature;BMP_pressure;BME280_temperature;BME280_humidity;BME280_pressure;Samples;Min_cycle;Max_cycle;Signal;HPM_P1;HPM_P2
2022/01/20 00:00:53;;;;;;;6.53;4.20;;;14.60;86.30;;;;;;2020691;28;20156;-70
2022/01/20 00:01:54;;;;;;;5.20;3.35;;;14.60;86.30;;;;;;2020676;28;20209;-71
2022/01/20 00:03:00;;;;;;;7.45;3.65;;;14.60;86.30;;;;;;2020121;28;20172;-71
2022/01/20 00:03:59;;;;;;;6.32;4.10;;;14.60;86.20;;;;;;2020166;28;20237;-71
2022/01/20 00:07:46;;;;;;;7.13;3.85;;;14.60;86.10;;;;;;2020682;28;20533;-71
2022/01/20 00:26:19;;;;;;;6.88;4.00;;;14.60;86.90;;;;;;2020467;28;20167;-70
2022/01/20 00:27:20;;;;;;;7.15;4.00;;;14.60;86.00;;;;;;2020521;28;20171;-70
2022/01/20 00:28:25;;;;;;;6.70;3.22;;;14.60;86.10;;;;;;2020618;28;20253;-71
2022/01/20 00:29:28;;;;;;;5.90;3.70;;;14.60;86.10;;;;;;2020749;28;20161;-71
2022/01/20 00:31:36;;;;;;;8.43;4.57;;;14.60;86.00;;;;;;2020484;28;20172;-70
2022/01/20 00:33:50;;;;;;;5.68;3.50;;;14.70;86.00;;;;;;2020532;28;20270;-70
2022/01/20 00:37:16;;;;;;;5.68;3.40;;;14.70;86.00;;;;;;2020707;28;20161;-70
2022/01/20 00:38:20;;;;;;;7.55;3.38;;;14.70;86.00;;;;;;2020474;28;20159;-70
2022/01/20 00:39:19;;;;;;;6.95;3.47;;;14.70;86.00;;;;;;2020609;28;20156;-70
2022/01/20 00:40:18;;;;;;;6.80;3.43;;;14.70;86.00;;;;;;2020590;28;20179;-70
2022/01/20 00:41:17;;;;;;;5.47;3.57;;;14.70;86.00;;;;;;2020477;28;20198;-70
2022/01/20 00:42:16;;;;;;;5.13;3.23;;;14.70;86.10;;;;;;2020728;28;20163;-70
2022/01/20 00:43:15;;;;;;;5.93;3.45;;;14.60;85.80;;;;;;2020655;28;20404;-69
2022/01/20 00:44:13;;;;;;;11.23;3.63;;;14.80;86.10;;;;;;2020670;28;20657;-70
2022/01/20 00:45:12;;;;;;;5.80;2.97;;;14.70;86.10;;;;;;2020941;28;20672;-69
2022/01/20 00:46:11;;;;;;;5.17;2.80;;;14.70;86.00;;;;;;2020843;28;20241;-70
2022/01/20 00:47:10;;;;;;;7.57;3.63;;;14.70;86.00;;;;;;2020960;28;20206;-69
2022/01/20 00:48:09;;;;;;;6.53;3.20;;;14.70;85.90;;;;;;2021095;28;20190;-69
2022/01/20 00:49:07;;;;;;;6.07;3.50;;;14.70;86.00;;;;;;2027419;28;20203;-70
2022/01/20 00:50:08;;;;;;;7.50;3.13;;;14.70;86.10;;;;;;2029892;28;20191;-70
2022/01/20 00:51:08;;;;;;;5.22;3.47;;;14.70;86.00;;;;;;2029881;28;20222;-70
2022/01/20 00:52:07;;;;;;;6.50;3.75;;;14.60;86.00;;;;;;2029223;28;20184;-69
2022/01/20 00:53:06;;;;;;;8.50;3.80;;;14.60;85.90;;;;;;2021177;28;20187;-69
2022/01/20 00:54:04;;;;;;;6.87;3.43;;;14.60;86.10;;;;;;2020411;28;20206;-69
2022/01/20 00:55:05;;;;;;;5.80;2.60;;;14.70;86.30;;;;;;2020149;28;20180;-69
2022/01/20 00:56:03;;;;;;;5.38;2.85;;;14.70;86.10;;;;;;2020036;28;20360;-70
2022/01/20 00:57:03;;;;;;;5.20;2.97;;;14.70;86.00;;;;;;2020620;28;20233;-69
2022/01/20 00:58:02;;;;;;;6.50;3.40;;;14.60;86.00;;;;;;2020616;28;20539;-70
2022/01/20 00:59:00;;;;;;;6.30;3.47;;;14.60;86.00;;;;;;2020754;28;20199;-69
2022/01/20 00:59:59;;;;;;;5.27;3.33;;;14.80;86.90;;;;;;2020784;28;20258;-69
2022/01/20 01:00:57;;;;;;;4.80;2.70;;;14.70;86.20;;;;;;2020160;28;20202;-69
2022/01/20 01:01:58;;;;;;;6.33;3.60;;;14.70;86.00;;;;;;2020445;28;20228;-69
2022/01/20 01:02:57;;;;;;;8.13;3.65;;;14.70;86.10;;;;;;2020511;28;20217;-69
2022/01/20 01:03:55;;;;;;;5.10;3.10;;;14.60;85.90;;;;;;2020472;28;20187;-69
2022/01/20 01:04:54;;;;;;;7.20;3.30;;;14.70;86.10;;;;;;2020529;28;20178;-69
2022/01/20 01:08:13;;;;;;;6.85;3.88;;;14.70;86.10;;;;;;2020449;28;20246;-70
2022/01/20 01:09:12;;;;;;;4.47;2.80;;;14.70;86.10;;;;;;2020424;28;20175;-70
2022/01/20 01:10:13;;;;;;;7.00;3.40;;;14.70;86.00;;;;;;2020238;28;20175;-70
2022/01/20 01:11:12;;;;;;;7.38;4.13;;;14.70;86.10;;;;;;2020452;28;20162;-70
2022/01/20 01:12:16;;;;;;;6.00;3.27;;;14.70;86.00;;;;;;2020359;28;20254;-70
2022/01/20 01:13:17;;;;;;;9.43;3.30;;;14.70;85.90;;;;;;2020274;28;20209;-71
2022/01/20 01:14:17;;;;;;;7.18;3.05;;;14.70;86.10;;;;;;2020460;28;20179;-70
2022/01/20 01:15:22;;;;;;;4.80;2.95;;;14.70;86.00;;;;;;2019788;28;20167;-70
2022/01/20 01:16:24;;;;;;;7.05;3.25;;;14.70;86.00;;;;;;2019658;28;20537;-70
2022/01/20 01:23:10;;;;;;;5.95;3.42;;;14.70;86.00;;;;;;2020295;28;20184;-70
2022/01/20 01:24:09;;;;;;;6.70;3.30;;;14.70;86.00;;;;;;2020272;28;20171;-71
2022/01/20 01:25:08;;;;;;;5.33;3.00;;;14.70;86.10;;;;;;2020239;28;20198;-71
2022/01/20 01:26:09;;;;;;;5.90;3.80;;;14.70;86.20;;;;;;2020185;28;20260;-70
2022/01/20 01:27:09;;;;;;;6.07;2.63;;;14.70;86.10;;;;;;2019543;28;20437;-70
2022/01/20 01:28:08;;;;;;;7.65;3.85;;;14.70;86.10;;;;;;2019650;28;20594;-70
2022/01/20 01:29:23;;;;;;;4.40;2.53;;;14.70;86.20;;;;;;2019572;28;20180;-71
2022/01/20 01:30:42;;;;;;;4.65;2.63;;;14.70;85.90;;;;;;2019916;28;20160;-70
2022/01/20 01:31:41;;;;;;;6.50;3.92;;;14.70;85.80;;;;;;2020246;28;20243;-70
2022/01/20 01:32:48;;;;;;;4.65;2.92;;;14.70;85.90;;;;;;2020322;28;20191;-70
2022/01/20 01:33:59;;;;;;;6.85;3.05;;;14.70;86.00;;;;;;2020228;28;20507;-70
2022/01/20 01:35:00;;;;;;;9.23;3.20;;;14.70;86.00;;;;;;2020307;28;20645;-70
2022/01/20 01:36:02;;;;;;;6.40;3.33;;;14.70;86.20;;;;;;2020318;28;20188;-70
2022/01/20 01:39:03;;;;;;;7.25;3.78;;;14.70;86.00;;;;;;2020337;28;20156;-69
2022/01/20 01:40:07;;;;;;;6.03;2.87;;;14.70;86.60;;;;;;2020287;28;20214;-70
2022/01/20 01:41:13;;;;;;;4.35;2.70;;;14.70;85.80;;;;;;2020128;28;20187;-69
2022/01/20 01:42:11;;;;;;;4.05;2.95;;;14.80;85.90;;;;;;2020315;28;20168;-70
2022/01/20 01:43:17;;;;;;;6.37;2.60;;;14.70;85.80;;;;;;2021410;28;20211;-69
2022/01/20 01:44:22;;;;;;;4.18;2.78;;;14.70;85.70;;;;;;2021802;28;20626;-69
2022/01/20 01:45:34;;;;;;;5.18;2.55;;;14.70;85.80;;;;;;2021750;28;20160;-69
2022/01/20 01:46:34;;;;;;;5.13;3.10;;;14.80;85.90;;;;;;2021787;28;20546;-70
2022/01/20 01:47:32;;;;;;;4.65;3.15;;;14.70;85.90;;;;;;2021713;28;20533;-69
2022/01/20 01:48:31;;;;;;;5.43;2.90;;;14.70;85.70;;;;;;2021680;28;20262;-69
2022/01/20 01:49:30;;;;;;;5.57;3.22;;;14.70;85.90;;;;;;2021782;28;20179;-70
2022/01/20 01:50:29;;;;;;;8.17;3.07;;;14.70;85.90;;;;;;2021634;28;20199;-70
2022/01/20 01:51:28;;;;;;;5.82;2.45;;;14.70;85.90;;;;;;2021742;28;20176;-69
2022/01/20 01:52:26;;;;;;;5.40;3.30;;;14.60;85.70;;;;;;2021676;28;20264;-70
2022/01/20 01:53:25;;;;;;;5.50;2.40;;;14.70;85.90;;;;;;2021666;28;20172;-71
2022/01/20 01:54:24;;;;;;;5.22;3.00;;;14.70;85.90;;;;;;2021918;28;20239;-70
2022/01/20 01:55:23;;;;;;;6.73;3.33;;;14.70;85.90;;;;;;2020983;28;20354;-70
2022/01/20 01:56:22;;;;;;;6.97;2.33;;;14.70;85.80;;;;;;2020796;28;20469;-70
2022/01/20 01:57:23;;;;;;;9.70;3.47;;;14.70;85.80;;;;;;2021600;28;20430;-70
2022/01/20 01:58:22;;;;;;;6.13;2.90;;;14.70;85.90;;;;;;2021561;28;20178;-69
2022/01/20 01:59:20;;;;;;;5.90;3.20;;;14.70;85.90;;;;;;2021686;28;20234;-70
2022/01/20 02:00:19;;;;;;;3.23;2.30;;;14.70;85.70;;;;;;2021677;28;20696;-70
2022/01/20 02:01:17;;;;;;;5.70;2.57;;;14.70;85.90;;;;;;2021643;28;20186;-70
2022/01/20 02:02:16;;;;;;;4.90;2.80;;;14.70;85.90;;;;;;2021579;28;20198;-70
2022/01/20 02:03:15;;;;;;;5.20;2.50;;;14.70;85.70;;;;;;2021578;28;20172;-70
2022/01/20 02:04:19;;;;;;;5.30;3.20;;;14.70;85.80;;;;;;2021481;28;20175;-71
2022/01/20 02:05:19;;;;;;;5.88;3.20;;;14.70;85.90;;;;;;2021574;28;20144;-70
2022/01/20 02:08:40;;;;;;;6.03;2.50;;;14.70;86.00;;;;;;2021654;28;20171;-69
2022/01/20 02:19:39;;;;;;;4.55;2.83;;;14.60;86.00;;;;;;2021565;28;20160;-70
2022/01/20 02:20:38;;;;;;;5.32;2.72;;;14.80;86.10;;;;;;2021453;28;20192;-70
2022/01/20 02:22:02;;;;;;;5.70;2.90;;;14.70;86.10;;;;;;2020670;28;20207;-70
2022/01/20 02:23:00;;;;;;;3.95;2.60;;;14.70;86.00;;;;;;2021171;28;20187;-69
2022/01/20 02:23:59;;;;;;;5.27;2.90;;;14.70;86.20;;;;;;2021413;28;20176;-70
2022/01/20 02:24:57;;;;;;;7.00;3.10;;;14.70;86.00;;;;;;2021356;28;20594;-70
2022/01/20 02:25:56;;;;;;;6.90;2.70;;;14.70;86.00;;;;;;2021405;28;20215;-69
2022/01/20 02:26:55;;;;;;;4.10;2.93;;;14.70;86.10;;;;;;2021272;28;20593;-71
2022/01/20 02:27:57;;;;;;;4.23;2.73;;;14.70;86.10;;;;;;2021299;28;20183;-70
2022/01/20 02:28:56;;;;;;;3.47;2.55;;;14.70;85.90;;;;;;2021334;28;20932;-70
2022/01/20 02:29:54;;;;;;;5.10;3.37;;;14.70;86.00;;;;;;2021527;28;20176;-70
2022/01/20 02:30:54;;;;;;;6.47;3.00;;;14.70;86.10;;;;;;2021315;28;20658;-70
2022/01/20 02:31:59;;;;;;;5.57;2.40;;;14.70;85.90;;;;;;2021217;28;20217;-70
2022/01/20 02:33:09;;;;;;;6.95;2.88;;;14.70;85.80;;;;;;2021273;28;20178;-70
2022/01/20 02:34:12;;;;;;;3.78;2.50;;;14.70;85.90;;;;;;2021269;28;20156;-70
2022/01/20 02:35:12;;;;;;;4.03;2.95;;;14.70;85.90;;;;;;2021281;28;20678;-70
2022/01/20 02:36:15;;;;;;;4.80;2.40;;;14.60;85.90;;;;;;2021386;28;20224;-70
2022/01/20 02:37:15;;;;;;;4.15;2.67;;;14.60;86.10;;;;;;2021315;28;20584;-70
2022/01/20 02:45:45;;;;;;;5.32;2.38;;;14.60;86.10;;;;;;2021374;28;20614;-70
2022/01/20 02:46:43;;;;;;;3.53;2.10;;;14.60;86.20;;;;;;2021342;28;20286;-70
2022/01/20 02:47:42;;;;;;;3.83;2.47;;;14.60;86.10;;;;;;2021205;28;20172;-71
2022/01/20 02:48:40;;;;;;;5.20;2.50;;;14.60;86.30;;;;;;2021159;28;20172;-71
2022/01/20 02:49:39;;;;;;;5.17;2.97;;;14.60;86.10;;;;;;2021161;28;20536;-70
2022/01/20 02:50:37;;;;;;;4.30;2.70;;;14.60;86.10;;;;;;2021180;28;20179;-71
2022/01/20 02:51:36;;;;;;;5.90;3.67;;;14.60;85.80;;;;;;2021202;28;20168;-70
2022/01/20 02:52:34;;;;;;;5.40;2.70;;;14.60;86.00;;;;;;2021124;28;20544;-70
2022/01/20 02:53:33;;;;;;;3.70;2.47;;;14.60;85.90;;;;;;2020344;28;20254;-71
2022/01/20 02:54:32;;;;;;;3.50;2.33;;;14.60;85.90;;;;;;2020602;28;20202;-70
2022/01/20 02:55:30;;;;;;;8.17;2.97;;;14.60;86.00;;;;;;2021211;28;20190;-70
2022/01/20 02:56:29;;;;;;;5.20;2.43;;;14.50;86.60;;;;;;2020867;28;20224;-71
2022/01/20 02:57:28;;;;;;;4.43;2.87;;;14.60;86.00;;;;;;2021077;28;20195;-70
2022/01/20 02:58:26;;;;;;;9.00;3.10;;;14.60;86.00;;;;;;2021111;28;20172;-71
2022/01/20 02:59:25;;;;;;;3.30;2.30;;;14.60;86.10;;;;;;2021093;28;20182;-70
2022/01/20 03:00:24;;;;;;;4.23;2.27;;;14.60;86.00;;;;;;2021192;28;20262;-71
2022/01/20 03:01:22;;;;;;;3.33;2.50;;;14.60;86.10;;;;;;2021121;28;20249;-71
2022/01/20 03:02:21;;;;;;;3.97;2.33;;;14.60;86.00;;;;;;2021065;28;20444;-71
2022/01/20 03:03:20;;;;;;;5.20;2.50;;;14.60;86.00;;;;;;2021144;28;20172;-71
2022/01/20 03:04:21;;;;;;;7.07;2.50;;;14.60;86.10;;;;;;2021145;28;20199;-71
2022/01/20 03:05:19;;;;;;;7.28;2.40;;;14.60;86.00;;;;;;2021035;28;20164;-70
2022/01/20 03:06:18;;;;;;;3.60;2.40;;;14.60;85.90;;;;;;2021025;28;20191;-71
2022/01/20 03:07:17;;;;;;;7.80;2.70;;;14.60;86.10;;;;;;2020981;28;20690;-70
2022/01/20 03:08:15;;;;;;;4.80;2.83;;;14.60;86.10;;;;;;2021007;28;20167;-70
2022/01/20 03:09:14;;;;;;;8.67;3.20;;;14.60;86.10;;;;;;2021005;28;20172;-70
2022/01/20 03:10:12;;;;;;;3.47;2.53;;;14.60;86.00;;;;;;2021224;28;20181;-70
2022/01/20 03:11:11;;;;;;;4.97;2.47;;;14.60;86.20;;;;;;2020991;28;20179;-70
2022/01/20 03:12:09;;;;;;;6.03;2.73;;;14.60;86.10;;;;;;2020915;28;20190;-70
2022/01/20 03:13:08;;;;;;;2.80;2.13;;;14.60;86.10;;;;;;2020952;28;20172;-70
2022/01/20 03:14:06;;;;;;;6.03;2.57;;;14.60;86.10;;;;;;2021035;28;20552;-71
2022/01/20 03:15:05;;;;;;;5.87;2.60;;;14.60;86.10;;;;;;2021075;28;20178;-70
2022/01/20 03:16:04;;;;;;;3.90;2.07;;;14.60;86.00;;;;;;2020947;28;20180;-71
2022/01/20 03:17:03;;;;;;;6.17;2.70;;;14.60;86.10;;;;;;2020928;28;20477;-70
2022/01/20 03:18:03;;;;;;;2.73;2.33;;;14.60;85.90;;;;;;2020973;28;20409;-70
2022/01/20 03:19:02;;;;;;;2.47;1.95;;;14.70;86.10;;;;;;2020921;28;20168;-69
2022/01/20 03:20:01;;;;;;;4.00;2.27;;;14.70;86.10;;;;;;2020858;28;20180;-69
2022/01/20 03:20:59;;;;;;;4.30;2.37;;;14.70;86.10;;;;;;2020953;28;20527;-69
2022/01/20 03:21:58;;;;;;;4.13;2.70;;;14.70;86.10;;;;;;2020888;28;20398;-69
2022/01/20 03:22:56;;;;;;;3.17;2.10;;;14.70;86.00;;;;;;2021025;28;20186;-70
2022/01/20 03:23:55;;;;;;;4.40;2.43;;;14.60;86.10;;;;;;2020905;28;20176;-71
2022/01/20 03:24:55;;;;;;;5.60;2.80;;;14.80;86.20;;;;;;2020882;28;20176;-71
2022/01/20 03:25:54;;;;;;;5.50;2.80;;;14.70;86.20;;;;;;2020857;28;20200;-71
2022/01/20 03:26:52;;;;;;;4.10;2.60;;;14.60;86.10;;;;;;2020818;28;20194;-71
2022/01/20 03:27:50;;;;;;;8.17;3.00;;;14.70;86.20;;;;;;2020876;28;20528;-71
2022/01/20 03:28:50;;;;;;;5.30;2.87;;;14.60;86.10;;;;;;2020893;28;20536;-71
2022/01/20 03:29:49;;;;;;;5.05;2.53;;;14.60;86.20;;;;;;2020809;28;20609;-71
2022/01/20 03:30:48;;;;;;;4.40;2.70;;;14.70;86.30;;;;;;2020966;28;20168;-71
2022/01/20 03:31:46;;;;;;;4.30;2.20;;;14.60;86.20;;;;;;2020771;28;20557;-70
2022/01/20 03:32:45;;;;;;;4.10;2.53;;;14.70;86.30;;;;;;2020840;28;20168;-70
2022/01/20 03:33:43;;;;;;;5.10;2.30;;;14.60;86.10;;;;;;2021006;28;20164;-70
2022/01/20 03:34:42;;;;;;;6.63;2.03;;;14.70;86.30;;;;;;2021013;28;20186;-70
2022/01/20 03:35:41;;;;;;;4.77;2.80;;;14.70;86.30;;;;;;2020800;28;20176;-70
2022/01/20 03:36:39;;;;;;;4.50;2.67;;;14.60;86.20;;;;;;2020596;28;20207;-71
2022/01/20 03:37:38;;;;;;;4.10;2.40;;;14.60;86.40;;;;;;2020738;28;20187;-71
2022/01/20 03:38:36;;;;;;;3.27;2.27;;;14.60;86.10;;;;;;2020871;28;20267;-69
2022/01/20 03:39:35;;;;;;;7.63;2.47;;;14.60;86.00;;;;;;2020805;28;20643;-69
2022/01/20 03:40:34;;;;;;;4.23;2.47;;;14.60;86.10;;;;;;2020782;28;20627;-71
2022/01/20 03:41:32;;;;;;;4.77;2.60;;;14.60;86.20;;;;;;2020789;28;20175;-69
2022/01/20 03:42:31;;;;;;;3.40;1.80;;;14.60;86.40;;;;;;2020806;28;20166;-70
2022/01/20 03:43:30;;;;;;;5.50;2.73;;;14.60;86.40;;;;;;2020781;28;20171;-69
2022/01/20 03:44:29;;;;;;;5.13;2.40;;;14.50;86.20;;;;;;2020732;28;20486;-70
2022/01/20 03:45:28;;;;;;;9.10;2.42;;;14.50;86.20;;;;;;2020688;28;20214;-70
2022/01/20 03:46:26;;;;;;;4.30;1.80;;;14.50;86.30;;;;;;2020660;28;20230;-70
2022/01/20 03:47:26;;;;;;;4.83;2.50;;;14.50;86.50;;;;;;2020694;28;20237;-70
2022/01/20 03:48:27;;;;;;;4.38;3.10;;;14.50;86.70;;;;;;2020903;28;20690;-69
2022/01/20 03:49:51;;;;;;;8.00;2.55;;;14.50;86.60;;;;;;2020723;28;20245;-69
2022/01/20 03:51:02;;;;;;;3.03;1.83;;;14.50;86.70;;;;;;2020060;28;20183;-69
2022/01/20 03:52:01;;;;;;;3.53;2.20;;;14.50;86.80;;;;;;2013149;28;20184;-70
2022/01/20 03:53:00;;;;;;;6.72;2.72;;;14.50;86.60;;;;;;2020008;28;20180;-69
2022/01/20 03:53:58;;;;;;;4.60;2.33;;;14.50;86.40;;;;;;2020633;28;20236;-70
2022/01/20 03:54:57;;;;;;;6.40;2.37;;;14.50;86.40;;;;;;2020863;28;20534;-69
2022/01/20 03:55:57;;;;;;;4.13;2.13;;;14.50;86.60;;;;;;2020326;28;20649;-70
2022/01/20 03:56:55;;;;;;;3.95;2.30;;;14.40;86.70;;;;;;2020552;28;20426;-70
2022/01/20 03:57:54;;;;;;;7.90;3.30;;;14.50;86.50;;;;;;2020678;28;20179;-70
2022/01/20 03:58:52;;;;;;;6.47;2.67;;;14.50;86.60;;;;;;2020651;28;20170;-70
2022/01/20 03:59:51;;;;;;;3.90;2.30;;;14.50;86.60;;;;;;2020653;28;20202;-70
2022/01/20 04:00:50;;;;;;;6.73;2.53;;;14.50;86.40;;;;;;2020749;28;20194;-70
2022/01/20 04:01:48;;;;;;;5.20;2.80;;;14.60;86.60;;;;;;2020611;28;20172;-70
2022/01/20 04:02:47;;;;;;;8.40;2.63;;;14.40;86.60;;;;;;2020590;28;20200;-70
2022/01/20 04:03:45;;;;;;;2.97;2.20;;;14.40;86.50;;;;;;2020775;28;20171;-70
2022/01/20 04:04:44;;;;;;;4.70;2.70;;;14.40;86.50;;;;;;2020659;28;20574;-70
2022/01/20 04:05:56;;;;;;;4.40;2.60;;;14.40;86.80;;;;;;2020126;28;20168;-70
2022/01/20 04:06:54;;;;;;;5.18;2.60;;;14.40;86.70;;;;;;2020664;28;20655;-70
2022/01/20 04:07:53;;;;;;;4.47;2.40;;;14.40;86.80;;;;;;2020539;28;20202;-70
2022/01/20 04:08:51;;;;;;;6.70;2.80;;;14.40;86.60;;;;;;2020522;28;20194;-70
2022/01/20 04:09:50;;;;;;;4.30;2.43;;;14.40;86.60;;;;;;2020511;28;20568;-70
2022/01/20 04:10:48;;;;;;;7.80;2.33;;;14.40;86.60;;;;;;2020534;28;20619;-69
2022/01/20 04:11:49;;;;;;;6.37;2.93;;;14.40;86.60;;;;;;2020669;28;20540;-70
2022/01/20 04:12:47;;;;;;;3.78;2.03;;;14.40;86.50;;;;;;2020508;28;20259;-69
2022/01/20 04:13:46;;;;;;;4.60;2.40;;;14.40;86.40;;;;;;2020488;28;20537;-69
2022/01/20 04:14:48;;;;;;;4.43;2.23;;;14.40;86.60;;;;;;2020516;28;20172;-70
2022/01/20 04:15:48;;;;;;;4.93;2.72;;;14.40;86.40;;;;;;2020493;28;20627;-69
2022/01/20 04:17:03;;;;;;;6.43;2.20;;;14.40;86.70;;;;;;2020318;28;20579;-69
2022/01/20 04:18:02;;;;;;;6.40;2.30;;;14.40;86.90;;;;;;2020703;28;20151;-69
2022/01/20 04:19:04;;;;;;;3.63;2.00;;;14.40;86.80;;;;;;2020608;28;20493;-70
2022/01/20 04:20:03;;;;;;;3.47;2.10;;;14.40;87.00;;;;;;2020379;28;20421;-69
2022/01/20 04:21:01;;;;;;;4.22;2.35;;;14.40;86.70;;;;;;2020443;28;20238;-69
2022/01/20 04:22:01;;;;;;;3.83;1.90;;;14.40;86.70;;;;;;2020684;28;20623;-69
2022/01/20 04:23:00;;;;;;;5.85;2.75;;;14.40;86.80;;;;;;2020511;28;20221;-70
2022/01/20 04:24:00;;;;;;;5.67;2.50;;;14.40;86.80;;;;;;2020459;28;20229;-70
2022/01/20 04:24:58;;;;;;;3.05;2.03;;;14.40;86.80;;;;;;2020468;28;20572;-70
2022/01/20 04:25:57;;;;;;;4.23;2.50;;;14.40;86.80;;;;;;2020433;28;20247;-70
2022/01/20 04:26:56;;;;;;;3.03;2.20;;;14.30;86.80;;;;;;2020321;28;20552;-69
2022/01/20 04:27:54;;;;;;;3.10;2.03;;;14.40;86.60;;;;;;2020450;28;20391;-69
2022/01/20 04:28:55;;;;;;;4.70;2.40;;;14.40;86.60;;;;;;2020465;28;20225;-69
2022/01/20 04:29:54;;;;;;;8.98;2.80;;;14.30;86.60;;;;;;2020474;28;20176;-70
2022/01/20 04:30:52;;;;;;;4.33;2.80;;;14.30;86.50;;;;;;2020586;28;20174;-70
2022/01/20 04:31:51;;;;;;;3.50;2.10;;;14.40;86.60;;;;;;2020354;28;20195;-70
2022/01/20 04:32:49;;;;;;;2.90;2.20;;;14.40;86.60;;;;;;2020411;28;20163;-70
2022/01/20 04:33:48;;;;;;;6.20;2.30;;;14.30;86.60;;;;;;2020532;28;20167;-70
2022/01/20 04:34:47;;;;;;;4.10;2.13;;;14.40;86.70;;;;;;2020334;28;20199;-69
2022/01/20 04:35:45;;;;;;;4.63;2.73;;;14.40;86.80;;;;;;2020396;28;20164;-69
2022/01/20 04:36:46;;;;;;;4.27;1.93;;;14.30;86.70;;;;;;2020291;28;20755;-70
2022/01/20 04:37:46;;;;;;;9.00;2.15;;;14.30;86.70;;;;;;2020379;28;20164;-70
2022/01/20 04:38:45;;;;;;;2.92;2.03;;;14.40;86.70;;;;;;2020377;28;20175;-70
2022/01/20 04:39:48;;;;;;;3.40;2.10;;;14.30;86.30;;;;;;2020482;28;20172;-70
2022/01/20 04:40:46;;;;;;;3.15;2.00;;;14.40;86.50;;;;;;2020317;28;20460;-70
2022/01/20 04:41:45;;;;;;;3.10;2.13;;;14.40;86.50;;;;;;2020385;28;20176;-70
2022/01/20 04:42:46;;;;;;;5.10;1.90;;;14.30;86.60;;;;;;2020404;28;20537;-70
2022/01/20 04:43:44;;;;;;;4.25;2.05;;;14.30;86.80;;;;;;2020314;28;20168;-70
2022/01/20 04:44:58;;;;;;;3.03;2.07;;;14.30;86.60;;;;;;2020361;28;20174;-70
2022/01/20 04:46:05;;;;;;;3.65;2.50;;;14.40;86.60;;;;;;2020314;28;20155;-70
2022/01/20 04:47:17;;;;;;;8.40;2.42;;;14.40;86.60;;;;;;2020456;28;20514;-70
2022/01/20 04:48:23;;;;;;;4.28;2.45;;;14.40;86.50;;;;;;2020467;28;20152;-70
2022/01/20 04:57:21;;;;;;;3.05;2.35;;;14.30;86.50;;;;;;2020315;28;20167;-70
2022/01/20 04:58:20;;;;;;;5.95;2.78;;;14.30;86.50;;;;;;2020247;28;20160;-70
2022/01/20 04:59:18;;;;;;;4.13;2.70;;;14.30;86.40;;;;;;2020332;28;20172;-70
2022/01/20 05:00:17;;;;;;;4.03;2.40;;;14.30;86.70;;;;;;2020256;28;20304;-70
2022/01/20 05:01:15;;;;;;;10.57;2.73;;;14.30;87.00;;;;;;2020243;28;20570;-70
2022/01/20 05:02:14;;;;;;;4.47;2.17;;;14.30;86.80;;;;;;2020268;28;20541;-70
2022/01/20 05:03:12;;;;;;;4.23;2.13;;;14.30;86.80;;;;;;2020265;28;20542;-70
2022/01/20 05:04:11;;;;;;;5.33;2.53;;;14.30;86.80;;;;;;2020314;28;20182;-69
2022/01/20 05:05:10;;;;;;;3.27;1.90;;;14.30;86.80;;;;;;2020217;28;20315;-70
2022/01/20 05:06:09;;;;;;;3.30;1.97;;;14.30;86.60;;;;;;2020220;28;20175;-70
2022/01/20 05:07:09;;;;;;;6.80;2.40;;;14.30;86.70;;;;;;2020261;28;20180;-69
2022/01/20 05:08:08;;;;;;;5.80;2.80;;;14.20;86.60;;;;;;2020408;28;20639;-70
2022/01/20 05:09:07;;;;;;;3.30;2.00;;;14.20;86.60;;;;;;2020397;28;20167;-70
2022/01/20 05:10:10;;;;;;;3.73;1.63;;;14.20;86.60;;;;;;2020289;28;20168;-70
2022/01/20 05:11:10;;;;;;;5.03;2.15;;;14.20;86.60;;;;;;2020291;28;20503;-70
2022/01/20 05:12:12;;;;;;;5.05;2.20;;;14.20;86.70;;;;;;2020199;28;20272;-70
2022/01/20 05:13:22;;;;;;;4.47;2.20;;;14.20;86.70;;;;;;2020199;28;20251;-70
2022/01/20 05:14:20;;;;;;;3.70;2.00;;;14.20;86.70;;;;;;2020185;28;20156;-69
2022/01/20 05:15:20;;;;;;;4.40;2.27;;;14.20;86.80;;;;;;2019480;28;20210;-69
2022/01/20 05:16:19;;;;;;;3.65;1.85;;;14.20;86.70;;;;;;2019489;28;20329;-69
2022/01/20 05:17:17;;;;;;;3.10;2.20;;;14.20;86.90;;;;;;2020211;28;20172;-70
2022/01/20 05:18:16;;;;;;;5.70;2.53;;;14.20;86.80;;;;;;2021393;28;20180;-70
2022/01/20 05:19:14;;;;;;;6.27;2.33;;;14.30;87.10;;;;;;2021782;28;20175;-69
2022/01/20 05:20:14;;;;;;;4.07;1.93;;;14.20;87.00;;;;;;2021797;28;20505;-69
2022/01/20 05:21:12;;;;;;;2.70;2.10;;;14.20;86.90;;;;;;2021769;28;20182;-69
2022/01/20 05:22:11;;;;;;;4.50;1.87;;;14.20;86.90;;;;;;2021773;28;20183;-70
2022/01/20 05:23:09;;;;;;;3.70;2.20;;;14.20;86.90;;;;;;2021828;28;20167;-69
2022/01/20 05:24:08;;;;;;;3.20;1.93;;;14.20;86.80;;;;;;2021846;28;20164;-69
2022/01/20 05:25:07;;;;;;;3.93;2.13;;;14.20;86.80;;;;;;2021811;28;20184;-69
2022/01/20 05:26:06;;;;;;;3.20;1.83;;;14.20;86.90;;;;;;2021745;28;20164;-70
2022/01/20 05:27:05;;;;;;;6.67;2.27;;;14.20;86.80;;;;;;2021776;28;20179;-70
2022/01/20 05:28:03;;;;;;;3.90;2.23;;;14.20;86.60;;;;;;2021737;28;20206;-70
2022/01/20 05:29:02;;;;;;;4.70;2.10;;;14.20;86.70;;;;;;2021714;28;20226;-69
2022/01/20 05:30:01;;;;;;;4.37;2.13;;;14.20;86.70;;;;;;2021846;28;20178;-69
2022/01/20 05:30:59;;;;;;;3.20;1.80;;;14.20;86.60;;;;;;2021669;28;20164;-69
2022/01/20 05:31:58;;;;;;;4.87;2.03;;;14.20;86.60;;;;;;2021736;28;20191;-69
2022/01/20 05:32:56;;;;;;;4.47;2.10;;;14.20;86.70;;;;;;2021705;28;20550;-69
2022/01/20 05:33:55;;;;;;;3.00;1.93;;;14.20;86.70;;;;;;2021634;28;20709;-70
2022/01/20 05:34:53;;;;;;;5.40;2.20;;;14.20;86.80;;;;;;2021633;28;20178;-69
2022/01/20 05:35:52;;;;;;;3.50;1.70;;;14.20;86.80;;;;;;2021729;28;20171;-70
2022/01/20 05:36:51;;;;;;;8.13;2.13;;;14.20;86.70;;;;;;2021433;28;20298;-70
2022/01/20 05:37:49;;;;;;;4.63;2.27;;;14.20;86.80;;;;;;2021716;28;20176;-69
2022/01/20 05:38:47;;;;;;;2.90;2.10;;;14.20;86.70;;;;;;2021593;28;20192;-69
2022/01/20 05:39:46;;;;;;;5.00;1.67;;;14.20;86.60;;;;;;2021746;28;20171;-69
2022/01/20 05:40:45;;;;;;;4.70;2.07;;;14.20;86.60;;;;;;2020935;28;20168;-70
2022/01/20 05:41:44;;;;;;;3.80;1.73;;;14.30;86.90;;;;;;2021164;28;20179;-69
2022/01/20 05:42:43;;;;;;;6.45;2.30;;;14.20;86.70;;;;;;2021560;28;20168;-69
2022/01/20 05:43:42;;;;;;;4.40;1.87;;;14.20;86.80;;;;;;2021517;28;20164;-69
2022/01/20 05:44:41;;;;;;;3.17;1.93;;;14.20;86.70;;;;;;2021771;28;20167;-69
2022/01/20 05:45:39;;;;;;;3.67;1.75;;;14.20;86.70;;;;;;2021556;28;20242;-70
2022/01/20 05:46:47;;;;;;;3.60;2.33;;;14.10;86.50;;;;;;2021515;28;20211;-70
2022/01/20 05:47:47;;;;;;;3.00;1.55;;;14.20;86.60;;;;;;2021740;28;20214;-70
2022/01/20 05:48:48;;;;;;;7.45;2.17;;;14.20;86.70;;;;;;2021573;28;20187;-70
2022/01/20 05:49:46;;;;;;;3.70;2.00;;;14.20;86.50;;;;;;2021632;28;20175;-70
2022/01/20 05:50:45;;;;;;;4.00;2.13;;;14.20;86.60;;;;;;2021594;28;20203;-70
2022/01/20 05:51:44;;;;;;;4.03;2.10;;;14.20;86.60;;;;;;2021651;28;20171;-70
2022/01/20 05:52:43;;;;;;;3.53;2.00;;;14.20;86.60;;;;;;2021561;28;20470;-70
2022/01/20 05:53:42;;;;;;;5.13;2.30;;;14.20;86.70;;;;;;2021388;28;20631;-70
2022/01/20 05:54:40;;;;;;;5.03;1.90;;;14.20;86.60;;;;;;2021701;28;20570;-70
2022/01/20 05:55:39;;;;;;;4.87;2.20;;;14.20;86.60;;;;;;2021231;28;20171;-70
2022/01/20 05:56:37;;;;;;;3.53;1.97;;;14.10;86.70;;;;;;2021505;28;20298;-70
2022/01/20 05:57:36;;;;;;;3.20;2.03;;;14.20;86.70;;;;;;2021616;28;20528;-70
2022/01/20 05:58:36;;;;;;;5.50;2.40;;;14.20;86.60;;;;;;2021574;28;20677;-70
2022/01/20 05:59:35;;;;;;;2.25;1.80;;;14.20;86.60;;;;;;2021640;28;20186;-70
2022/01/20 06:00:37;;;;;;;3.00;1.60;;;14.30;86.80;;;;;;2021508;28;20198;-70
2022/01/20 06:01:37;;;;;;;5.28;2.08;;;14.10;86.60;;;;;;2021555;28;20168;-70
2022/01/20 06:03:35;;;;;;;5.25;2.55;;;14.10;86.40;;;;;;2021563;28;20542;-70
2022/01/20 06:03:54;;;;;;;4.63;2.20;;;14.10;86.30;;;;;;2021444;28;20163;-70
2022/01/20 06:04:53;;;;;;;2.00;1.80;;;14.10;86.50;;;;;;2021508;28;20187;-70
2022/01/20 06:05:51;;;;;;;5.43;2.53;;;14.10;86.50;;;;;;2021458;28;20199;-70
2022/01/20 06:06:50;;;;;;;4.70;1.93;;;14.20;86.60;;;;;;2021385;28;20621;-70
2022/01/20 06:07:48;;;;;;;4.40;1.87;;;14.30;86.60;;;;;;2021507;28;20179;-70
2022/01/20 06:08:47;;;;;;;4.13;2.77;;;14.40;86.30;;;;;;2021556;28;20175;-69
2022/01/20 06:09:46;;;;;;;6.33;2.10;;;14.40;86.30;;;;;;2021527;28;20183;-69
2022/01/20 06:10:44;;;;;;;4.73;2.00;;;14.40;86.20;;;;;;2021406;28;20471;-69
2022/01/20 06:11:43;;;;;;;4.07;2.03;;;14.50;86.40;;;;;;2021448;28;20191;-69
2022/01/20 06:12:42;;;;;;;4.60;1.77;;;14.40;86.00;;;;;;2021631;28;20168;-69
2022/01/20 06:13:40;;;;;;;2.80;2.00;;;14.40;86.20;;;;;;2021321;28;20534;-69
2022/01/20 06:14:39;;;;;;;3.90;2.13;;;14.40;86.30;;;;;;2021497;28;20171;-69
2022/01/20 06:15:38;;;;;;;4.60;2.17;;;14.30;86.30;;;;;;2021413;28;20711;-69
2022/01/20 06:16:38;;;;;;;6.97;2.40;;;14.30;86.40;;;;;;2021165;28;20215;-69